Lane, Illinois
Current Conditions -  °F | °C
As of 1:54 AM on Sunday 26 Oct 2014 (Local Time) from KDEC Reporting Station
Clear Clear  
Wind Chill: 55°   Ceiling: Unl
Heat Index: 55°   Visibility: 10mi
Dew Point: 37°   Wind: 12mph
Humidity: 51%   Direction: 350°N
Pressure: 30.03"   Gusts: NA
Location:  40.12°N, 88.86°W
Report Text: KDEC 260654Z 35010KT 10SM CLR 13/03 A3003 RMK AO2 SLP167 T01280028
Loading
Personal Weather Stations






























Interactive Weather Map
Tropical Storm Tracking
New forecast layout! Learn more

10-Day Weather Forecast

Advertisements
Track Severe Weather on mobile